sensor_id;sensor_type;location;lat;lon;timestamp;P1;durP1;ratioP1;P2;durP2;ratioP2
11747;SDS011;5931;48.832;9.072;2023-08-06T00:02:23;3.97;;;3.23;;
11747;SDS011;5931;48.832;9.072;2023-08-06T00:04:49;4.40;;;3.50;;
11747;SDS011;5931;48.832;9.072;2023-08-06T00:07:14;5.23;;;3.57;;
11747;SDS011;5931;48.832;9.072;2023-08-06T00:09:40;5.70;;;3.43;;
11747;SDS011;5931;48.832;9.072;2023-08-06T00:12:06;3.77;;;3.23;;
11747;SDS011;5931;48.832;9.072;2023-08-06T00:14:32;4.67;;;3.07;;
11747;SDS011;5931;48.832;9.072;2023-08-06T00:16:57;4.20;;;2.93;;
11747;SDS011;5931;48.832;9.072;2023-08-06T00:19:23;5.80;;;3.50;;
11747;SDS011;5931;48.832;9.072;2023-08-06T00:21:49;5.00;;;3.87;;
11747;SDS011;5931;48.832;9.072;2023-08-06T00:24:14;3.03;;;2.60;;
11747;SDS011;5931;48.832;9.072;2023-08-06T00:26:40;5.73;;;3.47;;
11747;SDS011;5931;48.832;9.072;2023-08-06T00:29:06;6.07;;;4.23;;
11747;SDS011;5931;48.832;9.072;2023-08-06T00:31:31;3.60;;;3.30;;
11747;SDS011;5931;48.832;9.072;2023-08-06T00:33:57;4.10;;;3.50;;
11747;SDS011;5931;48.832;9.072;2023-08-06T00:36:22;4.77;;;3.30;;
11747;SDS011;5931;48.832;9.072;2023-08-06T00:38:48;4.70;;;3.47;;
11747;SDS011;5931;48.832;9.072;2023-08-06T00:41:14;6.00;;;3.43;;
11747;SDS011;5931;48.832;9.072;2023-08-06T00:43:40;4.00;;;3.10;;
11747;SDS011;5931;48.832;9.072;2023-08-06T00:46:05;5.67;;;4.10;;
11747;SDS011;5931;48.832;9.072;2023-08-06T00:48:31;4.70;;;3.20;;
11747;SDS011;5931;48.832;9.072;2023-08-06T00:50:57;5.40;;;3.50;;
11747;SDS011;5931;48.832;9.072;2023-08-06T00:53:23;4.63;;;3.53;;
11747;SDS011;5931;48.832;9.072;2023-08-06T00:55:49;6.20;;;3.83;;
11747;SDS011;5931;48.832;9.072;2023-08-06T00:58:16;5.27;;;4.07;;
11747;SDS011;5931;48.832;9.072;2023-08-06T01:00:42;4.83;;;3.00;;
11747;SDS011;5931;48.832;9.072;2023-08-06T01:03:07;4.63;;;3.20;;
11747;SDS011;5931;48.832;9.072;2023-08-06T01:05:33;4.53;;;3.43;;
11747;SDS011;5931;48.832;9.072;2023-08-06T01:08:15;4.17;;;3.33;;
11747;SDS011;5931;48.832;9.072;2023-08-06T01:13:46;5.20;;;3.63;;
11747;SDS011;5931;48.832;9.072;2023-08-06T01:16:20;6.10;;;3.90;;
11747;SDS011;5931;48.832;9.072;2023-08-06T01:18:47;5.00;;;3.73;;
11747;SDS011;5931;48.832;9.072;2023-08-06T01:21:17;3.77;;;3.30;;
11747;SDS011;5931;48.832;9.072;2023-08-06T01:23:44;3.97;;;3.00;;
11747;SDS011;5931;48.832;9.072;2023-08-06T01:31:38;4.60;;;3.37;;
11747;SDS011;5931;48.832;9.072;2023-08-06T01:34:07;5.23;;;3.67;;
11747;SDS011;5931;48.832;9.072;2023-08-06T01:36:37;4.87;;;3.30;;
11747;SDS011;5931;48.832;9.072;2023-08-06T01:39:04;5.60;;;3.60;;
11747;SDS011;5931;48.832;9.072;2023-08-06T01:41:30;4.40;;;3.33;;
11747;SDS011;5931;48.832;9.072;2023-08-06T01:43:56;4.07;;;3.33;;
11747;SDS011;5931;48.832;9.072;2023-08-06T01:46:22;5.40;;;3.70;;
11747;SDS011;5931;48.832;9.072;2023-08-06T01:48:47;5.83;;;3.27;;
11747;SDS011;5931;48.832;9.072;2023-08-06T01:51:13;3.20;;;2.77;;
11747;SDS011;5931;48.832;9.072;2023-08-06T01:53:39;4.13;;;2.97;;
11747;SDS011;5931;48.832;9.072;2023-08-06T01:56:04;5.63;;;3.27;;
11747;SDS011;5931;48.832;9.072;2023-08-06T01:58:30;3.33;;;2.53;;
11747;SDS011;5931;48.832;9.072;2023-08-06T02:00:56;4.83;;;3.17;;
11747;SDS011;5931;48.832;9.072;2023-08-06T02:03:23;11.43;;;3.37;;
11747;SDS011;5931;48.832;9.072;2023-08-06T02:05:48;4.03;;;2.87;;
11747;SDS011;5931;48.832;9.072;2023-08-06T02:08:14;3.50;;;3.10;;
11747;SDS011;5931;48.832;9.072;2023-08-06T02:10:40;4.03;;;3.00;;
11747;SDS011;5931;48.832;9.072;2023-08-06T02:13:06;3.57;;;2.90;;
11747;SDS011;5931;48.832;9.072;2023-08-06T02:15:32;3.57;;;2.87;;
11747;SDS011;5931;48.832;9.072;2023-08-06T02:17:58;4.37;;;3.73;;
11747;SDS011;5931;48.832;9.072;2023-08-06T02:20:23;2.27;;;1.87;;
11747;SDS011;5931;48.832;9.072;2023-08-06T02:22:49;2.80;;;2.03;;
11747;SDS011;5931;48.832;9.072;2023-08-06T02:25:15;3.93;;;3.30;;
11747;SDS011;5931;48.832;9.072;2023-08-06T02:27:42;3.17;;;2.70;;
11747;SDS011;5931;48.832;9.072;2023-08-06T02:30:07;3.77;;;2.30;;
11747;SDS011;5931;48.832;9.072;2023-08-06T02:32:33;3.70;;;2.90;;
11747;SDS011;5931;48.832;9.072;2023-08-06T02:35:01;3.90;;;2.50;;
11747;SDS011;5931;48.832;9.072;2023-08-06T02:37:27;4.53;;;2.80;;
11747;SDS011;5931;48.832;9.072;2023-08-06T02:39:52;4.17;;;2.40;;
11747;SDS011;5931;48.832;9.072;2023-08-06T02:42:18;3.43;;;2.43;;
11747;SDS011;5931;48.832;9.072;2023-08-06T02:44:44;5.40;;;2.33;;
11747;SDS011;5931;48.832;9.072;2023-08-06T02:47:10;3.23;;;2.37;;
11747;SDS011;5931;48.832;9.072;2023-08-06T02:49:36;2.40;;;2.17;;
11747;SDS011;5931;48.832;9.072;2023-08-06T02:52:02;4.67;;;2.30;;
11747;SDS011;5931;48.832;9.072;2023-08-06T02:54:28;5.23;;;2.37;;
11747;SDS011;5931;48.832;9.072;2023-08-06T02:56:54;3.40;;;2.00;;
11747;SDS011;5931;48.832;9.072;2023-08-06T02:59:24;3.30;;;2.70;;
11747;SDS011;5931;48.832;9.072;2023-08-06T03:02:04;3.27;;;2.13;;
11747;SDS011;5931;48.832;9.072;2023-08-06T03:04:46;3.50;;;2.33;;
11747;SDS011;5931;48.832;9.072;2023-08-06T03:07:12;4.20;;;2.30;;
11747;SDS011;5931;48.832;9.072;2023-08-06T03:09:46;3.50;;;2.00;;
11747;SDS011;5931;48.832;9.072;2023-08-06T03:12:12;1.97;;;1.70;;
11747;SDS011;5931;48.832;9.072;2023-08-06T03:14:38;5.90;;;2.63;;
11747;SDS011;5931;48.832;9.072;2023-08-06T03:17:06;3.07;;;2.10;;
11747;SDS011;5931;48.832;9.072;2023-08-06T03:19:31;3.20;;;2.57;;
11747;SDS011;5931;48.832;9.072;2023-08-06T03:21:57;2.50;;;2.20;;
11747;SDS011;5931;48.832;9.072;2023-08-06T03:24:23;3.20;;;1.90;;
11747;SDS011;5931;48.832;9.072;2023-08-06T03:26:50;2.87;;;2.27;;
11747;SDS011;5931;48.832;9.072;2023-08-06T03:29:15;2.80;;;1.80;;
11747;SDS011;5931;48.832;9.072;2023-08-06T03:31:42;2.47;;;2.27;;
11747;SDS011;5931;48.832;9.072;2023-08-06T03:34:11;3.87;;;2.33;;
11747;SDS011;5931;48.832;9.072;2023-08-06T03:36:37;3.03;;;1.97;;
11747;SDS011;5931;48.832;9.072;2023-08-06T03:39:02;2.40;;;2.20;;
11747;SDS011;5931;48.832;9.072;2023-08-06T03:41:30;2.33;;;1.83;;
11747;SDS011;5931;48.832;9.072;2023-08-06T03:43:56;2.63;;;2.03;;
11747;SDS011;5931;48.832;9.072;2023-08-06T03:46:24;4.27;;;2.57;;
11747;SDS011;5931;48.832;9.072;2023-08-06T03:48:50;3.73;;;2.07;;
11747;SDS011;5931;48.832;9.072;2023-08-06T03:51:16;3.57;;;2.40;;
11747;SDS011;5931;48.832;9.072;2023-08-06T03:53:44;3.10;;;2.40;;
11747;SDS011;5931;48.832;9.072;2023-08-06T03:56:10;3.60;;;2.60;;
11747;SDS011;5931;48.832;9.072;2023-08-06T03:58:35;2.80;;;1.80;;
11747;SDS011;5931;48.832;9.072;2023-08-06T04:01:01;3.40;;;2.43;;
11747;SDS011;5931;48.832;9.072;2023-08-06T04:03:34;3.37;;;2.33;;
11747;SDS011;5931;48.832;9.072;2023-08-06T04:05:59;3.20;;;2.03;;
11747;SDS011;5931;48.832;9.072;2023-08-06T04:08:30;2.40;;;2.20;;
11747;SDS011;5931;48.832;9.072;2023-08-06T04:10:55;4.47;;;2.00;;
11747;SDS011;5931;48.832;9.072;2023-08-06T04:13:21;2.50;;;1.83;;
11747;SDS011;5931;48.832;9.072;2023-08-06T04:15:46;3.80;;;1.70;;
11747;SDS011;5931;48.832;9.072;2023-08-06T04:18:12;2.90;;;2.33;;
11747;SDS011;5931;48.832;9.072;2023-08-06T04:20:47;2.80;;;1.87;;
11747;SDS011;5931;48.832;9.072;2023-08-06T04:23:14;3.23;;;2.00;;
11747;SDS011;5931;48.832;9.072;2023-08-06T04:25:40;2.27;;;1.90;;
11747;SDS011;5931;48.832;9.072;2023-08-06T04:28:06;3.10;;;2.33;;
11747;SDS011;5931;48.832;9.072;2023-08-06T04:30:33;2.33;;;1.87;;
11747;SDS011;5931;48.832;9.072;2023-08-06T04:32:59;3.40;;;2.00;;
11747;SDS011;5931;48.832;9.072;2023-08-06T04:35:25;3.70;;;2.10;;
11747;SDS011;5931;48.832;9.072;2023-08-06T04:37:51;2.97;;;2.10;;
11747;SDS011;5931;48.832;9.072;2023-08-06T04:40:17;2.53;;;1.97;;
11747;SDS011;5931;48.832;9.072;2023-08-06T04:42:43;5.23;;;1.97;;
11747;SDS011;5931;48.832;9.072;2023-08-06T04:45:08;1.93;;;1.50;;
11747;SDS011;5931;48.832;9.072;2023-08-06T04:47:34;4.83;;;2.10;;
11747;SDS011;5931;48.832;9.072;2023-08-06T04:50:00;3.30;;;1.93;;
11747;SDS011;5931;48.832;9.072;2023-08-06T04:52:26;5.37;;;2.57;;
11747;SDS011;5931;48.832;9.072;2023-08-06T04:54:53;4.10;;;2.70;;
11747;SDS011;5931;48.832;9.072;2023-08-06T04:57:19;3.67;;;2.60;;
11747;SDS011;5931;48.832;9.072;2023-08-06T04:59:46;1.93;;;1.63;;
11747;SDS011;5931;48.832;9.072;2023-08-06T05:02:12;2.80;;;1.90;;
11747;SDS011;5931;48.832;9.072;2023-08-06T05:04:37;2.40;;;2.10;;
11747;SDS011;5931;48.832;9.072;2023-08-06T05:07:04;2.60;;;2.00;;
11747;SDS011;5931;48.832;9.072;2023-08-06T05:09:30;2.60;;;1.80;;
11747;SDS011;5931;48.832;9.072;2023-08-06T05:11:56;2.30;;;2.00;;
11747;SDS011;5931;48.832;9.072;2023-08-06T05:14:21;4.57;;;1.90;;
11747;SDS011;5931;48.832;9.072;2023-08-06T05:16:47;2.67;;;2.00;;
11747;SDS011;5931;48.832;9.072;2023-08-06T05:19:13;2.47;;;1.90;;
11747;SDS011;5931;48.832;9.072;2023-08-06T05:21:38;2.37;;;1.80;;
11747;SDS011;5931;48.832;9.072;2023-08-06T05:24:04;2.53;;;1.70;;
11747;SDS011;5931;48.832;9.072;2023-08-06T05:26:30;3.60;;;1.67;;
11747;SDS011;5931;48.832;9.072;2023-08-06T05:28:55;1.80;;;1.53;;
11747;SDS011;5931;48.832;9.072;2023-08-06T05:31:21;1.83;;;1.57;;
11747;SDS011;5931;48.832;9.072;2023-08-06T05:33:46;2.20;;;1.83;;
11747;SDS011;5931;48.832;9.072;2023-08-06T05:36:12;4.37;;;1.93;;
11747;SDS011;5931;48.832;9.072;2023-08-06T05:38:38;2.23;;;1.37;;
11747;SDS011;5931;48.832;9.072;2023-08-06T05:41:04;1.63;;;1.20;;
11747;SDS011;5931;48.832;9.072;2023-08-06T05:43:29;1.60;;;1.20;;
11747;SDS011;5931;48.832;9.072;2023-08-06T05:45:55;2.97;;;1.33;;
11747;SDS011;5931;48.832;9.072;2023-08-06T05:48:21;2.23;;;1.20;;
11747;SDS011;5931;48.832;9.072;2023-08-06T05:50:49;1.47;;;1.20;;
11747;SDS011;5931;48.832;9.072;2023-08-06T05:53:15;1.40;;;1.20;;
11747;SDS011;5931;48.832;9.072;2023-08-06T05:55:41;2.13;;;1.37;;
11747;SDS011;5931;48.832;9.072;2023-08-06T05:58:07;5.93;;;1.57;;
11747;SDS011;5931;48.832;9.072;2023-08-06T06:00:32;1.30;;;1.20;;
11747;SDS011;5931;48.832;9.072;2023-08-06T06:02:59;2.20;;;1.33;;
11747;SDS011;5931;48.832;9.072;2023-08-06T06:05:25;1.43;;;1.30;;
11747;SDS011;5931;48.832;9.072;2023-08-06T06:07:51;1.50;;;1.10;;
11747;SDS011;5931;48.832;9.072;2023-08-06T06:10:16;3.90;;;1.27;;
11747;SDS011;5931;48.832;9.072;2023-08-06T06:12:42;1.40;;;1.07;;
11747;SDS011;5931;48.832;9.072;2023-08-06T06:15:08;3.40;;;0.97;;
11747;SDS011;5931;48.832;9.072;2023-08-06T06:17:34;1.23;;;0.90;;
11747;SDS011;5931;48.832;9.072;2023-08-06T06:20:00;1.20;;;1.00;;
11747;SDS011;5931;48.832;9.072;2023-08-06T06:22:25;2.37;;;1.20;;
11747;SDS011;5931;48.832;9.072;2023-08-06T06:24:51;2.03;;;1.00;;
11747;SDS011;5931;48.832;9.072;2023-08-06T06:27:16;1.97;;;0.83;;
11747;SDS011;5931;48.832;9.072;2023-08-06T06:29:42;3.50;;;1.23;;
11747;SDS011;5931;48.832;9.072;2023-08-06T06:32:08;1.40;;;1.00;;
11747;SDS011;5931;48.832;9.072;2023-08-06T06:34:33;3.23;;;1.20;;
11747;SDS011;5931;48.832;9.072;2023-08-06T06:36:59;1.63;;;1.00;;
11747;SDS011;5931;48.832;9.072;2023-08-06T06:39:24;1.20;;;0.90;;
11747;SDS011;5931;48.832;9.072;2023-08-06T06:41:50;1.20;;;0.90;;
11747;SDS011;5931;48.832;9.072;2023-08-06T06:44:23;1.20;;;1.00;;
11747;SDS011;5931;48.832;9.072;2023-08-06T06:46:49;1.07;;;0.87;;
11747;SDS011;5931;48.832;9.072;2023-08-06T06:49:15;1.30;;;0.90;;
11747;SDS011;5931;48.832;9.072;2023-08-06T06:51:40;1.30;;;0.90;;
11747;SDS011;5931;48.832;9.072;2023-08-06T06:54:06;1.00;;;0.80;;
11747;SDS011;5931;48.832;9.072;2023-08-06T06:56:31;1.40;;;1.00;;
11747;SDS011;5931;48.832;9.072;2023-08-06T06:58:57;1.10;;;0.90;;
11747;SDS011;5931;48.832;9.072;2023-08-06T07:01:23;1.10;;;0.80;;
11747;SDS011;5931;48.832;9.072;2023-08-06T07:03:48;1.30;;;1.20;;
11747;SDS011;5931;48.832;9.072;2023-08-06T07:06:14;1.93;;;0.93;;
11747;SDS011;5931;48.832;9.072;2023-08-06T07:08:40;1.80;;;0.90;;
11747;SDS011;5931;48.832;9.072;2023-08-06T07:11:06;1.23;;;0.90;;
11747;SDS011;5931;48.832;9.072;2023-08-06T07:13:32;1.00;;;0.70;;
11747;SDS011;5931;48.832;9.072;2023-08-06T07:15:59;1.00;;;0.90;;
11747;SDS011;5931;48.832;9.072;2023-08-06T07:18:24;1.00;;;0.80;;
11747;SDS011;5931;48.832;9.072;2023-08-06T07:20:53;1.53;;;0.80;;
11747;SDS011;5931;48.832;9.072;2023-08-06T07:23:20;2.17;;;0.80;;
11747;SDS011;5931;48.832;9.072;2023-08-06T07:25:47;1.00;;;0.70;;
11747;SDS011;5931;48.832;9.072;2023-08-06T07:28:13;1.97;;;0.83;;
11747;SDS011;5931;48.832;9.072;2023-08-06T07:30:39;1.10;;;0.87;;
11747;SDS011;5931;48.832;9.072;2023-08-06T07:33:06;1.73;;;0.93;;
11747;SDS011;5931;48.832;9.072;2023-08-06T07:35:31;1.00;;;0.80;;
11747;SDS011;5931;48.832;9.072;2023-08-06T07:37:57;1.77;;;0.90;;
11747;SDS011;5931;48.832;9.072;2023-08-06T07:40:23;1.83;;;0.80;;
11747;SDS011;5931;48.832;9.072;2023-08-06T07:42:49;1.20;;;0.93;;
11747;SDS011;5931;48.832;9.072;2023-08-06T07:45:15;1.10;;;0.80;;
11747;SDS011;5931;48.832;9.072;2023-08-06T07:47:40;1.33;;;0.80;;
11747;SDS011;5931;48.832;9.072;2023-08-06T07:50:07;1.30;;;1.00;;
11747;SDS011;5931;48.832;9.072;2023-08-06T07:52:34;1.10;;;0.90;;
11747;SDS011;5931;48.832;9.072;2023-08-06T07:55:00;1.07;;;0.83;;
11747;SDS011;5931;48.832;9.072;2023-08-06T07:57:29;1.10;;;0.80;;
11747;SDS011;5931;48.832;9.072;2023-08-06T07:59:59;1.00;;;0.77;;
11747;SDS011;5931;48.832;9.072;2023-08-06T08:02:27;1.83;;;1.00;;
11747;SDS011;5931;48.832;9.072;2023-08-06T08:04:52;1.97;;;0.93;;
11747;SDS011;5931;48.832;9.072;2023-08-06T08:07:18;1.20;;;0.87;;
11747;SDS011;5931;48.832;9.072;2023-08-06T08:09:44;1.20;;;0.90;;
11747;SDS011;5931;48.832;9.072;2023-08-06T08:12:09;1.73;;;1.00;;
11747;SDS011;5931;48.832;9.072;2023-08-06T08:14:35;1.00;;;0.80;;
11747;SDS011;5931;48.832;9.072;2023-08-06T08:17:02;1.00;;;0.80;;
11747;SDS011;5931;48.832;9.072;2023-08-06T08:19:31;1.10;;;0.83;;
11747;SDS011;5931;48.832;9.072;2023-08-06T08:21:57;1.00;;;0.80;;
11747;SDS011;5931;48.832;9.072;2023-08-06T08:24:23;1.00;;;0.80;;
11747;SDS011;5931;48.832;9.072;2023-08-06T08:26:49;1.10;;;0.90;;
11747;SDS011;5931;48.832;9.072;2023-08-06T08:29:16;1.07;;;0.90;;
11747;SDS011;5931;48.832;9.072;2023-08-06T08:31:41;1.17;;;0.80;;
11747;SDS011;5931;48.832;9.072;2023-08-06T08:34:08;1.10;;;0.90;;
11747;SDS011;5931;48.832;9.072;2023-08-06T08:36:34;1.00;;;0.80;;
11747;SDS011;5931;48.832;9.072;2023-08-06T08:38:59;1.00;;;0.80;;
11747;SDS011;5931;48.832;9.072;2023-08-06T08:41:27;1.00;;;0.80;;
11747;SDS011;5931;48.832;9.072;2023-08-06T08:43:58;1.00;;;0.80;;
11747;SDS011;5931;48.832;9.072;2023-08-06T08:46:27;1.00;;;0.70;;
11747;SDS011;5931;48.832;9.072;2023-08-06T08:48:55;1.00;;;0.80;;
11747;SDS011;5931;48.832;9.072;2023-08-06T08:51:23;1.00;;;0.80;;
11747;SDS011;5931;48.832;9.072;2023-08-06T08:53:50;1.00;;;0.80;;
11747;SDS011;5931;48.832;9.072;2023-08-06T08:56:20;1.20;;;0.80;;
11747;SDS011;5931;48.832;9.072;2023-08-06T08:58:46;1.07;;;0.83;;
11747;SDS011;5931;48.832;9.072;2023-08-06T09:01:11;1.00;;;0.80;;
11747;SDS011;5931;48.832;9.072;2023-08-06T09:03:37;1.00;;;0.80;;
11747;SDS011;5931;48.832;9.072;2023-08-06T09:06:04;1.20;;;0.90;;
11747;SDS011;5931;48.832;9.072;2023-08-06T09:08:33;1.00;;;0.80;;
11747;SDS011;5931;48.832;9.072;2023-08-06T09:11:02;1.00;;;0.80;;
11747;SDS011;5931;48.832;9.072;2023-08-06T09:13:30;1.00;;;0.70;;
11747;SDS011;5931;48.832;9.072;2023-08-06T09:15:55;1.00;;;0.80;;
11747;SDS011;5931;48.832;9.072;2023-08-06T09:18:25;1.53;;;1.00;;
11747;SDS011;5931;48.832;9.072;2023-08-06T09:20:52;1.00;;;0.80;;
11747;SDS011;5931;48.832;9.072;2023-08-06T09:23:18;1.00;;;0.70;;
11747;SDS011;5931;48.832;9.072;2023-08-06T09:25:45;1.10;;;0.80;;
11747;SDS011;5931;48.832;9.072;2023-08-06T09:28:12;1.10;;;0.80;;
11747;SDS011;5931;48.832;9.072;2023-08-06T09:30:37;1.00;;;0.80;;
11747;SDS011;5931;48.832;9.072;2023-08-06T09:33:07;1.00;;;0.80;;
11747;SDS011;5931;48.832;9.072;2023-08-06T09:35:39;1.30;;;0.90;;
11747;SDS011;5931;48.832;9.072;2023-08-06T09:38:05;1.30;;;0.80;;
11747;SDS011;5931;48.832;9.072;2023-08-06T09:40:35;1.23;;;0.87;;
11747;SDS011;5931;48.832;9.072;2023-08-06T09:43:01;3.13;;;0.90;;
11747;SDS011;5931;48.832;9.072;2023-08-06T09:45:31;1.00;;;0.80;;
11747;SDS011;5931;48.832;9.072;2023-08-06T09:48:07;1.00;;;0.80;;
11747;SDS011;5931;48.832;9.072;2023-08-06T09:50:34;1.00;;;0.80;;
11747;SDS011;5931;48.832;9.072;2023-08-06T09:53:02;1.10;;;0.83;;
11747;SDS011;5931;48.832;9.072;2023-08-06T09:55:33;1.00;;;0.80;;
11747;SDS011;5931;48.832;9.072;2023-08-06T09:57:59;1.00;;;0.80;;
11747;SDS011;5931;48.832;9.072;2023-08-06T10:00:25;1.20;;;0.80;;
11747;SDS011;5931;48.832;9.072;2023-08-06T10:02:53;1.00;;;0.80;;
11747;SDS011;5931;48.832;9.072;2023-08-06T10:05:23;1.97;;;0.90;;
11747;SDS011;5931;48.832;9.072;2023-08-06T10:07:50;1.10;;;0.80;;
11747;SDS011;5931;48.832;9.072;2023-08-06T10:10:16;1.00;;;0.80;;
11747;SDS011;5931;48.832;9.072;2023-08-06T10:12:43;1.00;;;0.80;;
11747;SDS011;5931;48.832;9.072;2023-08-06T10:15:15;1.00;;;0.80;;
11747;SDS011;5931;48.832;9.072;2023-08-06T10:17:46;1.00;;;0.80;;
11747;SDS011;5931;48.832;9.072;2023-08-06T10:20:13;1.00;;;0.80;;
11747;SDS011;5931;48.832;9.072;2023-08-06T10:22:45;1.10;;;0.80;;
11747;SDS011;5931;48.832;9.072;2023-08-06T10:25:15;1.00;;;0.70;;
11747;SDS011;5931;48.832;9.072;2023-08-06T10:30:23;1.00;;;0.70;;
11747;SDS011;5931;48.832;9.072;2023-08-06T10:32:57;1.00;;;0.80;;
11747;SDS011;5931;48.832;9.072;2023-08-06T10:35:41;1.10;;;0.80;;
11747;SDS011;5931;48.832;9.072;2023-08-06T10:38:15;1.00;;;0.80;;
11747;SDS011;5931;48.832;9.072;2023-08-06T10:43:29;1.00;;;0.80;;
11747;SDS011;5931;48.832;9.072;2023-08-06T10:45:59;1.30;;;0.80;;
11747;SDS011;5931;48.832;9.072;2023-08-06T10:48:35;1.00;;;0.80;;
11747;SDS011;5931;48.832;9.072;2023-08-06T10:51:08;1.20;;;0.80;;
11747;SDS011;5931;48.832;9.072;2023-08-06T10:53:34;1.63;;;0.80;;
11747;SDS011;5931;48.832;9.072;2023-08-06T10:56:01;1.00;;;0.90;;
11747;SDS011;5931;48.832;9.072;2023-08-06T10:58:33;1.00;;;0.80;;
11747;SDS011;5931;48.832;9.072;2023-08-06T11:00:59;1.10;;;0.90;;
11747;SDS011;5931;48.832;9.072;2023-08-06T11:03:26;1.03;;;0.93;;
11747;SDS011;5931;48.832;9.072;2023-08-06T11:05:52;1.13;;;0.90;;
11747;SDS011;5931;48.832;9.072;2023-08-06T11:08:27;1.30;;;1.00;;
11747;SDS011;5931;48.832;9.072;2023-08-06T11:10:54;1.10;;;0.90;;
11747;SDS011;5931;48.832;9.072;2023-08-06T11:13:20;1.23;;;1.00;;
11747;SDS011;5931;48.832;9.072;2023-08-06T11:15:46;1.73;;;1.00;;
11747;SDS011;5931;48.832;9.072;2023-08-06T11:18:12;1.20;;;1.00;;
11747;SDS011;5931;48.832;9.072;2023-08-06T11:20:38;1.20;;;1.00;;
11747;SDS011;5931;48.832;9.072;2023-08-06T11:23:05;1.50;;;1.10;;
11747;SDS011;5931;48.832;9.072;2023-08-06T11:25:31;1.30;;;1.10;;
11747;SDS011;5931;48.832;9.072;2023-08-06T11:28:01;1.63;;;1.03;;
11747;SDS011;5931;48.832;9.072;2023-08-06T11:30:26;1.67;;;1.20;;
11747;SDS011;5931;48.832;9.072;2023-08-06T11:32:52;1.33;;;1.00;;
11747;SDS011;5931;48.832;9.072;2023-08-06T11:35:18;1.50;;;1.30;;
11747;SDS011;5931;48.832;9.072;2023-08-06T11:37:44;1.33;;;1.20;;
11747;SDS011;5931;48.832;9.072;2023-08-06T11:40:14;1.50;;;1.17;;
11747;SDS011;5931;48.832;9.072;2023-08-06T11:42:40;1.53;;;1.30;;
11747;SDS011;5931;48.832;9.072;2023-08-06T11:45:07;2.33;;;1.30;;
11747;SDS011;5931;48.832;9.072;2023-08-06T11:47:36;2.50;;;1.40;;
11747;SDS011;5931;48.832;9.072;2023-08-06T11:50:05;1.90;;;1.40;;
11747;SDS011;5931;48.832;9.072;2023-08-06T11:52:31;2.00;;;1.30;;
11747;SDS011;5931;48.832;9.072;2023-08-06T11:55:04;1.37;;;1.20;;
11747;SDS011;5931;48.832;9.072;2023-08-06T11:57:33;1.60;;;1.20;;
11747;SDS011;5931;48.832;9.072;2023-08-06T12:00:06;1.33;;;1.13;;
11747;SDS011;5931;48.832;9.072;2023-08-06T12:02:43;1.37;;;1.20;;
11747;SDS011;5931;48.832;9.072;2023-08-06T12:05:10;2.37;;;1.57;;
11747;SDS011;5931;48.832;9.072;2023-08-06T12:07:46;2.10;;;1.47;;
11747;SDS011;5931;48.832;9.072;2023-08-06T12:10:14;3.03;;;1.70;;
11747;SDS011;5931;48.832;9.072;2023-08-06T12:12:40;1.97;;;1.30;;
11747;SDS011;5931;48.832;9.072;2023-08-06T12:15:07;1.83;;;1.47;;
11747;SDS011;5931;48.832;9.072;2023-08-06T12:17:34;2.17;;;1.30;;
11747;SDS011;5931;48.832;9.072;2023-08-06T12:20:00;1.93;;;1.50;;
11747;SDS011;5931;48.832;9.072;2023-08-06T12:22:26;1.87;;;1.50;;
11747;SDS011;5931;48.832;9.072;2023-08-06T12:24:52;2.13;;;1.60;;
11747;SDS011;5931;48.832;9.072;2023-08-06T12:27:20;2.60;;;1.50;;
11747;SDS011;5931;48.832;9.072;2023-08-06T12:29:47;2.03;;;1.53;;
11747;SDS011;5931;48.832;9.072;2023-08-06T12:32:13;1.40;;;1.27;;
11747;SDS011;5931;48.832;9.072;2023-08-06T12:34:40;2.00;;;1.60;;
11747;SDS011;5931;48.832;9.072;2023-08-06T12:37:07;2.90;;;1.37;;
11747;SDS011;5931;48.832;9.072;2023-08-06T12:39:33;1.40;;;1.30;;
11747;SDS011;5931;48.832;9.072;2023-08-06T12:42:00;2.50;;;1.60;;
11747;SDS011;5931;48.832;9.072;2023-08-06T12:44:27;1.23;;;1.13;;
11747;SDS011;5931;48.832;9.072;2023-08-06T12:46:53;3.83;;;1.10;;
11747;SDS011;5931;48.832;9.072;2023-08-06T12:49:19;1.33;;;1.10;;
11747;SDS011;5931;48.832;9.072;2023-08-06T12:51:49;1.40;;;1.10;;
11747;SDS011;5931;48.832;9.072;2023-08-06T12:54:18;1.37;;;1.10;;
11747;SDS011;5931;48.832;9.072;2023-08-06T12:56:45;1.23;;;0.97;;
11747;SDS011;5931;48.832;9.072;2023-08-06T12:59:12;1.87;;;1.37;;
11747;SDS011;5931;48.832;9.072;2023-08-06T13:01:41;1.20;;;1.10;;
11747;SDS011;5931;48.832;9.072;2023-08-06T13:04:08;2.07;;;1.97;;
11747;SDS011;5931;48.832;9.072;2023-08-06T13:06:33;1.30;;;1.20;;
11747;SDS011;5931;48.832;9.072;2023-08-06T13:09:02;1.30;;;1.20;;
11747;SDS011;5931;48.832;9.072;2023-08-06T13:11:29;1.80;;;1.20;;
11747;SDS011;5931;48.832;9.072;2023-08-06T13:13:58;1.30;;;1.10;;
11747;SDS011;5931;48.832;9.072;2023-08-06T13:16:28;1.50;;;1.10;;
11747;SDS011;5931;48.832;9.072;2023-08-06T13:18:54;1.47;;;1.17;;
11747;SDS011;5931;48.832;9.072;2023-08-06T13:21:19;1.10;;;0.90;;
11747;SDS011;5931;48.832;9.072;2023-08-06T13:23:45;1.40;;;1.00;;
11747;SDS011;5931;48.832;9.072;2023-08-06T13:26:11;1.27;;;1.03;;
11747;SDS011;5931;48.832;9.072;2023-08-06T13:28:36;1.60;;;1.50;;
11747;SDS011;5931;48.832;9.072;2023-08-06T13:31:02;1.20;;;1.10;;
11747;SDS011;5931;48.832;9.072;2023-08-06T13:33:27;2.23;;;1.00;;
11747;SDS011;5931;48.832;9.072;2023-08-06T13:35:53;1.43;;;1.07;;
11747;SDS011;5931;48.832;9.072;2023-08-06T13:38:19;1.40;;;1.13;;
11747;SDS011;5931;48.832;9.072;2023-08-06T13:40:44;1.37;;;1.23;;
11747;SDS011;5931;48.832;9.072;2023-08-06T13:43:11;1.20;;;1.00;;
11747;SDS011;5931;48.832;9.072;2023-08-06T13:45:37;1.20;;;1.00;;
11747;SDS011;5931;48.832;9.072;2023-08-06T13:48:03;1.17;;;1.00;;
11747;SDS011;5931;48.832;9.072;2023-08-06T13:50:29;1.23;;;1.03;;
11747;SDS011;5931;48.832;9.072;2023-08-06T13:52:54;1.30;;;1.00;;
11747;SDS011;5931;48.832;9.072;2023-08-06T13:55:21;1.10;;;0.90;;
11747;SDS011;5931;48.832;9.072;2023-08-06T13:57:47;1.67;;;1.20;;
11747;SDS011;5931;48.832;9.072;2023-08-06T14:00:13;1.10;;;0.90;;
11747;SDS011;5931;48.832;9.072;2023-08-06T14:02:39;1.30;;;1.17;;
11747;SDS011;5931;48.832;9.072;2023-08-06T14:05:04;2.70;;;1.10;;
11747;SDS011;5931;48.832;9.072;2023-08-06T14:07:30;1.50;;;1.10;;
11747;SDS011;5931;48.832;9.072;2023-08-06T14:09:56;1.30;;;1.20;;
11747;SDS011;5931;48.832;9.072;2023-08-06T14:12:23;1.30;;;1.10;;
11747;SDS011;5931;48.832;9.072;2023-08-06T14:14:49;1.20;;;1.10;;
11747;SDS011;5931;48.832;9.072;2023-08-06T14:17:15;2.17;;;1.47;;
11747;SDS011;5931;48.832;9.072;2023-08-06T14:19:41;1.70;;;1.20;;
11747;SDS011;5931;48.832;9.072;2023-08-06T14:22:06;1.27;;;1.17;;
11747;SDS011;5931;48.832;9.072;2023-08-06T14:24:32;1.60;;;1.40;;
11747;SDS011;5931;48.832;9.072;2023-08-06T14:26:57;2.33;;;1.23;;
11747;SDS011;5931;48.832;9.072;2023-08-06T14:29:23;1.30;;;1.00;;
11747;SDS011;5931;48.832;9.072;2023-08-06T14:31:50;2.20;;;1.37;;
11747;SDS011;5931;48.832;9.072;2023-08-06T14:34:16;1.30;;;1.10;;
11747;SDS011;5931;48.832;9.072;2023-08-06T14:36:41;1.10;;;0.93;;
11747;SDS011;5931;48.832;9.072;2023-08-06T14:39:07;1.30;;;1.10;;
11747;SDS011;5931;48.832;9.072;2023-08-06T14:41:33;1.50;;;1.00;;
11747;SDS011;5931;48.832;9.072;2023-08-06T14:43:58;1.63;;;1.07;;
11747;SDS011;5931;48.832;9.072;2023-08-06T14:46:24;1.10;;;1.00;;
11747;SDS011;5931;48.832;9.072;2023-08-06T14:48:50;1.43;;;1.30;;
11747;SDS011;5931;48.832;9.072;2023-08-06T14:51:16;1.20;;;1.00;;
11747;SDS011;5931;48.832;9.072;2023-08-06T14:53:44;1.33;;;1.20;;
11747;SDS011;5931;48.832;9.072;2023-08-06T14:56:10;1.20;;;0.90;;
11747;SDS011;5931;48.832;9.072;2023-08-06T14:58:35;1.23;;;1.07;;
11747;SDS011;5931;48.832;9.072;2023-08-06T15:01:01;1.40;;;1.20;;
11747;SDS011;5931;48.832;9.072;2023-08-06T15:03:26;1.10;;;0.90;;
11747;SDS011;5931;48.832;9.072;2023-08-06T15:05:53;1.37;;;1.20;;
11747;SDS011;5931;48.832;9.072;2023-08-06T15:08:19;1.20;;;0.97;;
11747;SDS011;5931;48.832;9.072;2023-08-06T15:10:51;2.43;;;1.30;;
11747;SDS011;5931;48.832;9.072;2023-08-06T15:13:18;1.33;;;1.17;;